Aérodrome :
LOGIN :

S'inscrire | Disclaimer

   EN    FR    IT 

 










Légende :    VFR   VFR Marginal   IFR   IFR Intensif   IFR Très Intensif
Visi : 
Plafond : 
>= 8 km
>= 3000ft
5 à 8 km
1000 à 3000 ft
1500m à 5 km
500 à 1000 ft
800 à 1500m
200 à 500 ft
< 800m
< 200 ft
Symboles :   Orages  Brouillard  Fortes neiges  Fortes précipitations  Vent > 20 kt
SIGMETs :   Divers  Orages  Givrage  Turbulence  Onde Orograph.  Cendres Volcan.







- Altitude de l'aérodrome : 1300 ft
- Code IATA : LIG
- Voir les cartes d'approche


LFBL - Limoges

DERNIER METAR :
  • 181030Z AUTO 13009KT 100V160 CAVOK 07/M00 Q1017 NOSIG

METARs EXPIRÉS :
  • 181000Z AUTO 13008KT 100V160 CAVOK 06/M00 Q1017 NOSIG
  • 180930Z AUTO 12009KT CAVOK 05/M01 Q1018 NOSIG
  • 180900Z AUTO 12009KT CAVOK 05/M01 Q1018 NOSIG
  • 180830Z AUTO 13009KT CAVOK 04/M01 Q1018 NOSIG
  • 180800Z AUTO 12009KT CAVOK 04/M01 Q1018 NOSIG
  • 180730Z AUTO 11007KT CAVOK 04/M01 Q1019 NOSIG

TAF TAF LFBL
Valide du 18 à 06h jusqu'au 19 à 06h UTC


180500Z 1806/1906 13007KT CAVOK
BECMG 1820/1822 20012KT 7000 BKN013
TEMPO 1822/1906 3000 -RA BKN006
PROB40
TEMPO 1900/1906 1500 -RADZ BKN002
ATIS : +33 5 55 48 40 37
Pas de NOTAMs connus pour ce terrain.
2 SIGMETs publiés pour la FIR Bordeaux (LFBB) :
 
Turbulence forte
LFBB SIGMET 3 VALID 181100/181300 LFPW
LFBB BORDEAUX FIR/UIR SEV TURB FCST WI N4345 E00245 - N4300 E00230 - N4330 E00130 - N4400 E00200 - N4345 E00245 SFC/FL040 STNR NC=
Turbulence forte
LFBB SIGMET 2 VALID 180800/181200 LFPW
LFBB BORDEAUX FIR/UIR SEV TURB FCST WI N4245 E00000 - N4300 W00145 - N4330 W00145 - N4315 E00000 - N4245 E00000 SFC/FL100 STNR NC=



MET'MAP, la Météo Aéronautique d'un coup d'oeil ! - Copyright ORBIFLY Décembre 2007 - Disclaimer

ORBIFLY MET'MAP TEAM :

Programmation & Développement : Alexandra Zaïnal
Conception & Développement : Baudouin d'Aumeries
Co-Programmation & Développement : Marc-Olivier Méhu
Soutien technique & logistique : Manuel Goepfert

Contact : metmap@orbifly.com




SOURCES & CREDITS :

   NOAA